Asheville Regional Airport (AVL)

 

Airport Diagram
Current Weather/Forecast (VFR Conditions)
METAR KAVL 050054Z AUTO 00000KT 10SM SCT041 SCT120 22/20 A3007 RMK AO2 SLP159 T02170200
TAF KAVL 050039Z 0501/0524 VRB04KT P6SM VCSH SCT050 FM050200 VRB03KT P6SM FEW040 FM050500 VRB02KT 5SM BR FEW120 FM050800 VRB02KT 2SM BR BKN005 TEMPO 0509/0512 1/2SM FG OVC003 FM051400 18007G13KT P6SM SCT050 PROB30 0518/0524 4SM TSRA BR BKN050CB

All Charts
General
Chart Name Download
AIRPORT DIAGRAM
TAKEOFF MINIMUMS
ALTERNATE MINIMUMS
HOT SPOT

Departures
Chart Name Download
ASHEVILLE FIVE

Approaches
Chart Name Download
ILS OR LOC RWY 35
RNAV (GPS) RWY 17
RNAV (GPS) RWY 35


Inbound Traffic (Arrivals)

No inbound traffic.


Outbound Traffic (Departures)

No outbound traffic.